createdAt,value
2022-10-30T00:00:36.992Z,96700.28
2022-10-30T00:03:05.237Z,96714.31
2022-10-30T00:05:33.351Z,96690.28
2022-10-30T00:08:02.714Z,96716.50
2022-10-30T00:10:30.682Z,96699.06
2022-10-30T00:12:58.632Z,96619.59
2022-10-30T00:15:26.657Z,96672.88
2022-10-30T00:17:55.058Z,96709.75
2022-10-30T00:20:23.325Z,96712.31
2022-10-30T00:22:51.420Z,96672.47
2022-10-30T00:25:20.827Z,96710.16
2022-10-30T00:27:48.832Z,96705.66
2022-10-30T00:30:17.482Z,96699.28
2022-10-30T00:32:45.482Z,96713.16
2022-10-30T00:35:13.546Z,96707.44
2022-10-30T00:37:41.611Z,96705.88
2022-10-30T00:40:16.163Z,96712.06
2022-10-30T00:42:45.591Z,96646.38
2022-10-30T00:45:14.930Z,96678.94
2022-10-30T00:47:44.741Z,96664.19
2022-10-30T00:50:15.027Z,96704.03
2022-10-30T00:52:45.811Z,96669.38
2022-10-30T00:55:18.603Z,96697.16
2022-10-30T00:57:49.179Z,96698.06
2022-10-30T01:00:17.774Z,96698.19
2022-10-30T01:02:45.967Z,96681.59
2022-10-30T01:05:17.118Z,96675.56
2022-10-30T01:07:45.161Z,96687.00
2022-10-30T01:10:14.044Z,96687.94
2022-10-30T01:12:42.141Z,96690.50
2022-10-30T01:15:12.354Z,96607.53
2022-10-30T01:18:14.985Z,96682.41
2022-10-30T01:21:04.138Z,96676.47
2022-10-30T01:23:39.196Z,96676.56
2022-10-30T01:26:16.105Z,96680.16
2022-10-30T01:28:56.470Z,96666.31
2022-10-30T01:31:36.832Z,96670.63
2022-10-30T01:34:14.861Z,96669.47
2022-10-30T01:36:48.190Z,96662.84
2022-10-30T01:39:19.561Z,96660.69
2022-10-30T01:41:47.511Z,96668.88
2022-10-30T01:44:17.713Z,96637.22
2022-10-30T01:46:55.867Z,96655.75
2022-10-30T01:49:47.183Z,96661.28
2022-10-30T01:52:20.013Z,96638.22
2022-10-30T01:54:51.936Z,96670.63
2022-10-30T01:57:27.448Z,96662.13
2022-10-30T01:59:59.948Z,96661.59
2022-10-30T02:02:29.570Z,96639.19
2022-10-30T02:04:58.049Z,96637.81
2022-10-30T02:07:26.174Z,96657.72
2022-10-30T02:09:55.666Z,96634.75
2022-10-30T02:12:24.527Z,96654.31
2022-10-30T02:14:55.642Z,96656.06
2022-10-30T02:17:23.970Z,96544.28
2022-10-30T02:19:53.378Z,96638.44
2022-10-30T02:22:22.965Z,96648.28
2022-10-30T02:24:50.999Z,96646.50
2022-10-30T02:27:18.982Z,96649.06
2022-10-30T02:29:46.976Z,96645.72
2022-10-30T02:32:14.976Z,96647.34
2022-10-30T02:34:44.110Z,96645.38
2022-10-30T02:37:12.138Z,96630.22
2022-10-30T02:39:41.493Z,96640.84
2022-10-30T02:42:09.479Z,96612.91
2022-10-30T02:44:37.513Z,96624.88
2022-10-30T02:47:05.581Z,96639.66
2022-10-30T02:49:33.620Z,96637.09
2022-10-30T02:52:01.620Z,96630.72
2022-10-30T02:54:29.698Z,96640.03
2022-10-30T02:56:59.084Z,96630.31
2022-10-30T02:59:27.207Z,96629.50
2022-10-30T03:01:55.324Z,96643.53
2022-10-30T03:04:23.426Z,96648.56
2022-10-30T03:06:51.446Z,96637.69
2022-10-30T03:09:19.478Z,96617.53
2022-10-30T03:11:47.866Z,96633.69
2022-10-30T03:14:17.488Z,96585.59
2022-10-30T03:16:45.469Z,96647.44
2022-10-30T03:19:13.463Z,96642.72
2022-10-30T03:21:41.525Z,96631.34
2022-10-30T03:24:09.705Z,96645.38
2022-10-30T03:26:37.879Z,96610.88
2022-10-30T03:29:06.096Z,96641.28
2022-10-30T03:31:35.424Z,96625.50
2022-10-30T03:34:03.422Z,96639.31
2022-10-30T03:36:31.428Z,96634.06
2022-10-30T03:38:59.488Z,96638.41
2022-10-30T03:41:27.438Z,96638.41
2022-10-30T03:43:55.437Z,96639.31
2022-10-30T03:46:23.469Z,96613.25
2022-10-30T03:48:52.877Z,96547.97
2022-10-30T03:51:20.894Z,96625.84
2022-10-30T03:53:48.853Z,96613.53
2022-10-30T03:56:16.862Z,96634.94
2022-10-30T03:58:44.784Z,96632.69
2022-10-30T04:01:12.947Z,96602.38
2022-10-30T04:03:41.050Z,96622.63
2022-10-30T04:06:10.781Z,96631.22
2022-10-30T04:08:38.742Z,96620.16
2022-10-30T04:11:06.926Z,96601.72
2022-10-30T04:13:34.996Z,96633.09
2022-10-30T04:16:03.029Z,96627.94
2022-10-30T04:18:31.859Z,96622.19
2022-10-30T04:21:01.032Z,96631.22
2022-10-30T04:23:30.615Z,96627.00
2022-10-30T04:26:01.485Z,96624.56
2022-10-30T04:28:29.469Z,96618.31
2022-10-30T04:30:57.860Z,96619.63
2022-10-30T04:33:25.847Z,96621.38
2022-10-30T04:35:54.888Z,96606.44
2022-10-30T04:38:23.012Z,96526.91
2022-10-30T04:40:52.401Z,96622.59
2022-10-30T04:43:20.383Z,96622.59
2022-10-30T04:45:48.401Z,96617.47
2022-10-30T04:48:17.949Z,96604.56
2022-10-30T04:50:46.355Z,96627.44
2022-10-30T04:53:16.209Z,96586.34
2022-10-30T04:55:44.521Z,96611.00
2022-10-30T04:58:14.370Z,96599.97
2022-10-30T05:00:42.894Z,96589.00
2022-10-30T05:03:15.536Z,96617.69
2022-10-30T05:05:43.634Z,96611.81
2022-10-30T05:08:11.573Z,96618.78
2022-10-30T05:10:40.455Z,96618.53
2022-10-30T05:13:09.450Z,96615.38
2022-10-30T05:15:38.887Z,96600.13
2022-10-30T05:18:06.938Z,96614.03
2022-10-30T05:20:34.900Z,96609.50
2022-10-30T05:23:02.852Z,96611.06
2022-10-30T05:25:30.989Z,96616.06
2022-10-30T05:28:00.612Z,96616.69
2022-10-30T05:30:28.965Z,96619.97
2022-10-30T05:33:01.784Z,96618.19
2022-10-30T05:35:30.319Z,96629.16
2022-10-30T05:37:58.433Z,96609.28
2022-10-30T05:40:26.484Z,96623.31
2022-10-30T05:42:55.113Z,96622.63
2022-10-30T05:45:23.298Z,96623.53
2022-10-30T05:47:56.343Z,96606.47
2022-10-30T05:50:26.276Z,96612.19
2022-10-30T05:52:56.850Z,96627.13
2022-10-30T05:55:25.051Z,96630.19
2022-10-30T05:57:57.446Z,96637.56
2022-10-30T06:00:26.243Z,96636.41
2022-10-30T06:02:55.056Z,96624.66
2022-10-30T06:05:25.146Z,96635.88
2022-10-30T06:07:56.103Z,96609.25
2022-10-30T06:10:24.101Z,96648.38
2022-10-30T06:12:56.561Z,96647.28
2022-10-30T06:15:24.927Z,96644.88
2022-10-30T06:17:53.566Z,96649.78
2022-10-30T06:20:22.693Z,96645.38
2022-10-30T06:22:59.915Z,96620.84
2022-10-30T06:25:28.499Z,96649.66
2022-10-30T06:27:57.055Z,96647.38
2022-10-30T06:30:25.618Z,96651.09
2022-10-30T06:32:57.905Z,96659.41
2022-10-30T06:35:26.585Z,96658.72
2022-10-30T06:37:56.185Z,96656.03
2022-10-30T06:40:25.621Z,96655.44
2022-10-30T06:42:55.217Z,96614.19
2022-10-30T06:45:24.677Z,96651.97
2022-10-30T06:47:53.312Z,96641.81
2022-10-30T06:50:24.957Z,96651.44
2022-10-30T06:52:55.604Z,96650.41
2022-10-30T06:55:25.125Z,96645.16
2022-10-30T06:57:57.321Z,96650.06
2022-10-30T07:00:25.673Z,96646.94
2022-10-30T07:02:59.342Z,96642.84
2022-10-30T07:05:28.836Z,96633.97
2022-10-30T07:07:58.410Z,96654.72
2022-10-30T07:10:27.992Z,96656.09
2022-10-30T07:12:57.677Z,96658.38
2022-10-30T07:15:26.137Z,96661.66
2022-10-30T07:17:58.729Z,96627.94
2022-10-30T07:20:29.595Z,96652.38
2022-10-30T07:22:57.702Z,96655.81
2022-10-30T07:25:27.176Z,96654.31
2022-10-30T07:27:56.418Z,96635.19
2022-10-30T07:33:01.627Z,96649.84
2022-10-30T07:35:30.557Z,96642.50
2022-10-30T07:38:03.172Z,96639.84
2022-10-30T07:40:32.779Z,96615.97
2022-10-30T07:43:02.173Z,96645.25
2022-10-30T07:45:30.716Z,96614.13
2022-10-30T07:47:58.918Z,96648.50
2022-10-30T07:50:27.561Z,96648.09
2022-10-30T07:52:55.618Z,96650.56
2022-10-30T07:55:23.678Z,96617.97
2022-10-30T07:57:53.066Z,96626.13
2022-10-30T08:00:21.141Z,96614.00
2022-10-30T08:02:52.126Z,96612.22
2022-10-30T08:05:24.353Z,96635.91
2022-10-30T08:07:57.162Z,96639.09
2022-10-30T08:10:26.153Z,96639.41
2022-10-30T08:12:55.983Z,96640.56
2022-10-30T08:15:24.533Z,96617.28
2022-10-30T08:17:53.219Z,96622.16
2022-10-30T08:20:24.043Z,96618.94
2022-10-30T08:22:52.973Z,96623.16
2022-10-30T08:25:22.105Z,96540.94
2022-10-30T08:27:57.094Z,96627.50
2022-10-30T08:30:25.747Z,96623.72
2022-10-30T08:32:53.953Z,96612.91
2022-10-30T08:35:22.183Z,96621.16
2022-10-30T08:37:52.473Z,96624.63
2022-10-30T08:40:20.505Z,96613.66
2022-10-30T08:42:52.468Z,96594.91
2022-10-30T08:45:28.012Z,96619.59
2022-10-30T08:48:03.478Z,96622.84
2022-10-30T08:50:31.774Z,96601.72
2022-10-30T08:53:02.841Z,96611.00
2022-10-30T08:55:31.538Z,96605.06
2022-10-30T08:57:59.971Z,96610.78
2022-10-30T09:00:30.152Z,96607.06
2022-10-30T09:02:58.737Z,96593.03
2022-10-30T09:05:27.664Z,96605.56
2022-10-30T09:08:01.698Z,96611.22
2022-10-30T09:10:32.100Z,96603.03
2022-10-30T09:13:02.664Z,96589.47
2022-10-30T09:15:32.638Z,96600.91
2022-10-30T09:18:02.601Z,96609.88
2022-10-30T09:20:31.274Z,96580.66
2022-10-30T09:22:59.554Z,96604.78
2022-10-30T09:25:27.881Z,96548.69
2022-10-30T09:27:55.908Z,96577.38
2022-10-30T09:30:24.215Z,96601.66
2022-10-30T09:32:58.174Z,96600.47
2022-10-30T09:35:26.737Z,96605.59
2022-10-30T09:37:55.099Z,96584.09
2022-10-30T09:40:29.699Z,96596.97
2022-10-30T09:42:59.491Z,96601.72
2022-10-30T09:46:04.221Z,96600.09
2022-10-30T09:48:58.864Z,96597.34
2022-10-30T09:51:46.604Z,96572.81
2022-10-30T09:54:21.101Z,96592.88
2022-10-30T09:56:51.387Z,96589.25
2022-10-30T09:59:28.539Z,96597.72
2022-10-30T10:02:02.641Z,96580.56
2022-10-30T10:04:39.990Z,96586.97
2022-10-30T10:07:15.334Z,96586.34
2022-10-30T10:09:44.036Z,96566.97
2022-10-30T10:12:15.441Z,96587.25
2022-10-30T10:14:45.396Z,96530.88
2022-10-30T10:17:27.074Z,96568.25
2022-10-30T10:20:00.356Z,96582.81
2022-10-30T10:22:35.441Z,96574.81
2022-10-30T10:25:04.826Z,96547.81
2022-10-30T10:27:46.938Z,96572.94
2022-10-30T10:30:17.453Z,96560.66
2022-10-30T10:33:06.515Z,96573.38
2022-10-30T10:35:56.777Z,96506.81
2022-10-30T10:38:37.535Z,96573.50
2022-10-30T10:41:14.946Z,96563.44
2022-10-30T10:43:52.446Z,96570.72
2022-10-30T10:46:34.522Z,96562.88
2022-10-30T10:49:14.309Z,96569.84
2022-10-30T10:51:45.714Z,96553.88
2022-10-30T10:54:17.564Z,96562.22
2022-10-30T10:56:49.497Z,96559.44
2022-10-30T10:59:19.822Z,96561.31
2022-10-30T11:01:59.744Z,96549.09
2022-10-30T11:04:33.526Z,96543.47
2022-10-30T11:07:09.831Z,96564.50
2022-10-30T11:09:38.188Z,96558.22
2022-10-30T11:12:07.160Z,96561.13
2022-10-30T11:14:35.313Z,96555.47
2022-10-30T11:17:07.616Z,96558.41
2022-10-30T11:19:35.919Z,96557.41
2022-10-30T11:22:05.801Z,96554.50
2022-10-30T11:24:35.294Z,96543.78
2022-10-30T11:27:18.796Z,96549.22
2022-10-30T11:29:53.409Z,96556.31
2022-10-30T11:32:23.106Z,96538.06
2022-10-30T11:35:02.395Z,96551.25
2022-10-30T11:37:33.429Z,96556.28
2022-10-30T11:40:07.545Z,96542.31
2022-10-30T11:42:36.237Z,96555.66
2022-10-30T11:45:05.130Z,96550.28
2022-10-30T11:50:05.885Z,96539.81
2022-10-30T11:52:38.975Z,96529.31
2022-10-30T11:55:14.704Z,96540.84
2022-10-30T11:57:44.278Z,96546.41
2022-10-30T12:00:18.267Z,96535.91
2022-10-30T12:02:48.552Z,96542.19
2022-10-30T12:05:44.881Z,96539.94
2022-10-30T12:08:22.013Z,96535.88
2022-10-30T12:11:00.068Z,96531.19
2022-10-30T12:13:28.615Z,96520.78
2022-10-30T12:16:09.001Z,96519.34
2022-10-30T12:18:37.180Z,96527.50
2022-10-30T12:21:05.372Z,96522.16
2022-10-30T12:23:35.192Z,96515.81
2022-10-30T12:26:10.421Z,96517.53
2022-10-30T12:28:39.615Z,96511.91
2022-10-30T12:31:11.709Z,96499.97
2022-10-30T12:33:43.491Z,96509.56
2022-10-30T12:36:13.748Z,96474.75
2022-10-30T12:38:45.049Z,96506.72
2022-10-30T12:41:17.617Z,96513.06
2022-10-30T12:43:51.124Z,96517.28
2022-10-30T12:46:34.449Z,96499.22
2022-10-30T12:49:10.324Z,96513.88
2022-10-30T12:51:43.970Z,96489.41
2022-10-30T12:54:22.339Z,96497.09
2022-10-30T12:56:52.624Z,96497.75
2022-10-30T12:59:32.119Z,96510.28
2022-10-30T13:02:03.821Z,96501.00
2022-10-30T13:04:35.794Z,96509.78
2022-10-30T13:07:06.536Z,96510.34
2022-10-30T13:09:39.923Z,96518.09
2022-10-30T13:12:12.165Z,96514.84
2022-10-30T13:14:43.625Z,96509.22
2022-10-30T13:17:13.355Z,96507.66
2022-10-30T13:19:42.534Z,96503.47
2022-10-30T13:22:16.057Z,96514.31
2022-10-30T13:24:52.376Z,96487.66
2022-10-30T13:27:25.819Z,96510.53
2022-10-30T13:29:58.156Z,96508.16
2022-10-30T13:32:32.920Z,96507.28
2022-10-30T13:35:06.659Z,96505.81
2022-10-30T13:37:40.025Z,96503.50
2022-10-30T13:40:18.077Z,96502.44
2022-10-30T13:42:55.703Z,96507.75
2022-10-30T13:45:35.260Z,96494.19
2022-10-30T13:48:08.979Z,96506.94
2022-10-30T13:50:48.073Z,96438.06
2022-10-30T13:53:22.338Z,96511.88
2022-10-30T13:55:52.667Z,96467.16
2022-10-30T13:58:26.133Z,96507.72
2022-10-30T14:01:01.275Z,96504.09
2022-10-30T14:03:39.459Z,96512.00
2022-10-30T14:06:13.879Z,96484.44
2022-10-30T14:08:45.388Z,96510.75
2022-10-30T14:11:16.401Z,96508.38
2022-10-30T14:13:55.311Z,96502.88
2022-10-30T14:16:44.763Z,96514.09
2022-10-30T14:19:14.257Z,96513.88
2022-10-30T14:21:52.888Z,96510.66
2022-10-30T14:24:24.207Z,96512.25
2022-10-30T14:26:55.027Z,96498.34
2022-10-30T14:29:48.351Z,96482.19
2022-10-30T14:32:41.952Z,96510.84
2022-10-30T14:35:33.815Z,96515.69
2022-10-30T14:38:29.482Z,96516.88
2022-10-30T14:41:26.767Z,96513.25
2022-10-30T14:44:12.861Z,96446.34
2022-10-30T14:46:47.077Z,96518.50
2022-10-30T14:49:30.883Z,96498.44
2022-10-30T14:52:09.740Z,96515.59
2022-10-30T14:54:42.679Z,96493.84
2022-10-30T14:57:22.244Z,96517.25
2022-10-30T15:00:31.036Z,96515.97
2022-10-30T15:03:00.046Z,96488.44
2022-10-30T15:05:42.575Z,96515.47
2022-10-30T15:08:34.834Z,96511.19
2022-10-30T15:11:22.960Z,96514.53
2022-10-30T15:13:54.584Z,96516.84
2022-10-30T15:16:25.396Z,96495.53
2022-10-30T15:18:58.676Z,96514.81
2022-10-30T15:21:29.726Z,96507.69
2022-10-30T15:23:59.698Z,96480.03
2022-10-30T15:26:33.152Z,96422.09
2022-10-30T15:29:02.214Z,96514.03
2022-10-30T15:31:33.288Z,96507.94
2022-10-30T15:34:01.329Z,96506.09
2022-10-30T15:36:30.774Z,96494.34
2022-10-30T15:39:11.783Z,96478.81
2022-10-30T15:41:44.256Z,96513.69
2022-10-30T15:44:12.758Z,96512.47
2022-10-30T15:46:46.507Z,96491.81
2022-10-30T15:49:17.603Z,96492.78
2022-10-30T15:51:47.315Z,96464.69
2022-10-30T15:54:19.329Z,96507.91
2022-10-30T15:57:26.952Z,96513.97
2022-10-30T15:59:38.558Z,96500.50
2022-10-30T16:02:22.212Z,96489.41
2022-10-30T16:04:51.111Z,96511.44
2022-10-30T16:07:23.326Z,96509.06
2022-10-30T16:09:55.953Z,96517.38
2022-10-30T16:12:26.804Z,96517.06
2022-10-30T16:14:55.546Z,96515.44
2022-10-30T16:17:25.692Z,96512.56
2022-10-30T16:19:56.017Z,96518.97
2022-10-30T16:22:27.082Z,96516.31
2022-10-30T16:24:56.292Z,96509.00
2022-10-30T16:27:25.766Z,96432.50
2022-10-30T16:29:57.003Z,96520.47
2022-10-30T16:32:28.478Z,96514.25
2022-10-30T16:34:58.976Z,96512.22
2022-10-30T16:37:29.536Z,96513.34
2022-10-30T16:39:57.905Z,96506.84
2022-10-30T16:42:27.588Z,96524.94
2022-10-30T16:45:35.174Z,96514.75
2022-10-30T16:48:10.538Z,96526.84
2022-10-30T16:50:39.824Z,96510.41
2022-10-30T16:53:12.762Z,96505.69
2022-10-30T16:55:41.241Z,96528.63
2022-10-30T16:58:13.025Z,96521.28
2022-10-30T17:00:41.883Z,96535.84
2022-10-30T17:03:12.974Z,96535.97
2022-10-30T17:05:43.755Z,96521.72
2022-10-30T17:08:30.109Z,96456.19
2022-10-30T17:11:00.282Z,96512.44
2022-10-30T17:13:36.844Z,96529.03
2022-10-30T17:16:21.830Z,96499.13
2022-10-30T17:18:54.796Z,96516.50
2022-10-30T17:21:24.458Z,96533.50
2022-10-30T17:23:54.721Z,96534.72
2022-10-30T17:26:23.073Z,96529.00
2022-10-30T17:28:51.210Z,96490.28
2022-10-30T17:31:25.482Z,96534.72
2022-10-30T17:34:15.069Z,96521.00
2022-10-30T17:36:43.745Z,96467.84
2022-10-30T17:39:12.013Z,96534.00
2022-10-30T17:41:40.449Z,96438.44
2022-10-30T17:44:19.557Z,96535.72
2022-10-30T17:46:47.662Z,96538.69
2022-10-30T17:49:25.419Z,96524.97
2022-10-30T17:51:53.535Z,96519.91
2022-10-30T17:54:23.259Z,96521.69
2022-10-30T17:56:52.000Z,96520.03
2022-10-30T17:59:20.155Z,96528.88
2022-10-30T18:01:50.467Z,96532.16
2022-10-30T18:04:21.475Z,96515.28
2022-10-30T18:06:50.179Z,96532.56
2022-10-30T18:09:18.327Z,96499.25
2022-10-30T18:11:46.787Z,96533.06
2022-10-30T18:14:15.246Z,96515.50
2022-10-30T18:16:43.557Z,96495.44
2022-10-30T18:19:12.382Z,96530.03
2022-10-30T18:21:41.863Z,96528.50
2022-10-30T18:24:13.982Z,96507.41
2022-10-30T18:26:42.543Z,96520.63
2022-10-30T18:29:10.737Z,96530.66
2022-10-30T18:31:39.625Z,96531.06
2022-10-30T18:34:13.088Z,96512.50
2022-10-30T18:36:45.017Z,96478.81
2022-10-30T18:39:13.721Z,96522.56
2022-10-30T18:41:43.777Z,96481.31
2022-10-30T18:44:15.857Z,96525.91
2022-10-30T18:46:44.765Z,96541.09
2022-10-30T18:49:13.327Z,96510.09
2022-10-30T18:51:43.449Z,96540.38
2022-10-30T18:54:15.618Z,96514.69
2022-10-30T18:56:43.877Z,96526.63
2022-10-30T18:59:12.149Z,96527.88
2022-10-30T19:01:41.146Z,96444.19
2022-10-30T19:04:11.120Z,96527.19
2022-10-30T19:06:39.332Z,96517.19
2022-10-30T19:09:08.981Z,96533.47
2022-10-30T19:11:40.633Z,96520.03
2022-10-30T19:14:13.841Z,96516.06
2022-10-30T19:16:42.288Z,96522.16
2022-10-30T19:19:10.470Z,96531.50
2022-10-30T19:21:38.468Z,96523.34
2022-10-30T19:24:13.440Z,96532.25
2022-10-30T19:26:41.804Z,96494.03
2022-10-30T19:29:09.868Z,96518.59
2022-10-30T19:31:38.116Z,96516.59
2022-10-30T19:34:06.604Z,96512.94
2022-10-30T19:36:37.181Z,96519.03
2022-10-30T19:39:09.166Z,96533.91
2022-10-30T19:41:40.057Z,96521.97
2022-10-30T19:44:08.525Z,96514.63
2022-10-30T19:46:37.092Z,96509.19
2022-10-30T19:49:14.195Z,96510.91
2022-10-30T19:51:42.656Z,96512.91
2022-10-30T19:54:10.839Z,96497.53
2022-10-30T19:56:42.236Z,96512.47
2022-10-30T19:59:10.972Z,96513.44
2022-10-30T20:01:41.977Z,96514.59
2022-10-30T20:04:11.306Z,96513.13
2022-10-30T20:06:39.528Z,96506.38
2022-10-30T20:09:09.618Z,96509.63
2022-10-30T20:11:37.583Z,96514.19
2022-10-30T20:14:07.425Z,96524.47
2022-10-30T20:16:35.736Z,96517.97
2022-10-30T20:19:05.281Z,96519.84
2022-10-30T20:21:33.517Z,96500.25
2022-10-30T20:24:01.677Z,96504.34
2022-10-30T20:26:30.777Z,96518.69
2022-10-30T20:29:00.431Z,96512.72
2022-10-30T20:31:29.977Z,96511.81
2022-10-30T20:33:57.985Z,96486.47
2022-10-30T20:36:26.145Z,96476.19
2022-10-30T20:38:54.597Z,96521.63
2022-10-30T20:41:23.855Z,96513.81
2022-10-30T20:43:52.082Z,96518.03
2022-10-30T20:46:20.403Z,96512.31
2022-10-30T20:48:50.071Z,96510.81
2022-10-30T20:51:18.281Z,96509.28
2022-10-30T20:53:46.474Z,96493.06
2022-10-30T20:56:14.510Z,96486.31
2022-10-30T20:58:42.918Z,96521.47
2022-10-30T21:01:11.951Z,96521.69
2022-10-30T21:03:42.502Z,96491.84
2022-10-30T21:06:13.360Z,96525.22
2022-10-30T21:08:41.438Z,96531.16
2022-10-30T21:11:09.479Z,96519.38
2022-10-30T21:13:37.936Z,96530.22
2022-10-30T21:16:08.432Z,96518.91
2022-10-30T21:18:36.823Z,96528.72
2022-10-30T21:21:06.780Z,96490.28
2022-10-30T21:23:36.243Z,96522.75
2022-10-30T21:26:05.538Z,96532.19
2022-10-30T21:28:34.079Z,96471.03
2022-10-30T21:31:03.306Z,96539.69
2022-10-30T21:33:32.360Z,96530.66
2022-10-30T21:36:10.623Z,96515.47
2022-10-30T21:38:43.159Z,96538.50
2022-10-30T21:41:12.319Z,96536.38
2022-10-30T21:43:40.383Z,96539.28
2022-10-30T21:46:09.135Z,96453.72
2022-10-30T21:48:37.253Z,96525.03
2022-10-30T21:51:10.590Z,96541.38
2022-10-30T21:53:38.918Z,96525.44
2022-10-30T21:56:10.948Z,96541.09
2022-10-30T21:58:39.090Z,96541.22
2022-10-30T22:01:08.114Z,96536.53
2022-10-30T22:03:36.182Z,96534.41
2022-10-30T22:06:08.681Z,96533.09
2022-10-30T22:08:36.776Z,96509.31
2022-10-30T22:11:05.760Z,96532.56
2022-10-30T22:13:35.597Z,96501.00
2022-10-30T22:16:04.421Z,96541.28
2022-10-30T22:18:32.636Z,96517.81
2022-10-30T22:21:02.281Z,96527.44
2022-10-30T22:23:30.687Z,96521.34
2022-10-30T22:25:59.976Z,96527.06
2022-10-30T22:28:28.767Z,96512.56
2022-10-30T22:31:02.897Z,96509.41
2022-10-30T22:33:32.754Z,96532.84
2022-10-30T22:36:25.191Z,96521.75
2022-10-30T22:39:20.376Z,96450.84
2022-10-30T22:42:17.469Z,96530.16
2022-10-30T22:44:45.679Z,96447.69
2022-10-30T22:47:15.098Z,96498.34
2022-10-30T22:49:47.722Z,96524.59
2022-10-30T22:52:24.933Z,96540.31
2022-10-30T22:54:53.509Z,96538.38
2022-10-30T22:57:21.565Z,96523.59
2022-10-30T22:59:49.831Z,96484.16
2022-10-30T23:02:19.713Z,96545.69
2022-10-30T23:04:47.890Z,96527.06
2022-10-30T23:07:16.921Z,96545.03
2022-10-30T23:09:45.169Z,96547.41
2022-10-30T23:12:13.212Z,96551.41
2022-10-30T23:14:41.478Z,96540.25
2022-10-30T23:17:10.004Z,96549.47
2022-10-30T23:19:40.033Z,96543.97
2022-10-30T23:22:08.346Z,96534.13
2022-10-30T23:24:36.682Z,96500.44
2022-10-30T23:27:05.243Z,96538.63
2022-10-30T23:29:33.372Z,96536.78
2022-10-30T23:32:01.509Z,96560.94
2022-10-30T23:34:29.491Z,96562.38
2022-10-30T23:37:01.711Z,96563.53
2022-10-30T23:39:30.076Z,96560.25
2022-10-30T23:41:58.052Z,96547.75
2022-10-30T23:44:26.049Z,96536.97
2022-10-30T23:46:54.098Z,96559.78
2022-10-30T23:49:22.147Z,96550.03
2022-10-30T23:51:50.166Z,96560.59
2022-10-30T23:54:19.645Z,96563.59
2022-10-30T23:56:47.722Z,96468.75
2022-10-30T23:59:15.753Z,96569.78
